sensor_id;sensor_type;location;lat;lon;timestamp;P1;durP1;ratioP1;P2;durP2;ratioP2
16462;SDS011;8342;42.736;23.292;2022-07-29T00:00:37;12.07;;;10.53;;
16462;SDS011;8342;42.736;23.292;2022-07-29T00:03:04;11.13;;;10.03;;
16462;SDS011;8342;42.736;23.292;2022-07-29T00:05:31;12.37;;;10.97;;
16462;SDS011;8342;42.736;23.292;2022-07-29T00:07:58;15.20;;;11.23;;
16462;SDS011;8342;42.736;23.292;2022-07-29T00:10:24;12.13;;;10.93;;
16462;SDS011;8342;42.736;23.292;2022-07-29T00:12:51;12.83;;;10.50;;
16462;SDS011;8342;42.736;23.292;2022-07-29T00:15:19;13.57;;;12.23;;
16462;SDS011;8342;42.736;23.292;2022-07-29T00:17:46;13.83;;;12.07;;
16462;SDS011;8342;42.736;23.292;2022-07-29T00:20:13;14.57;;;12.57;;
16462;SDS011;8342;42.736;23.292;2022-07-29T00:22:40;13.80;;;11.93;;
16462;SDS011;8342;42.736;23.292;2022-07-29T00:25:07;15.33;;;13.37;;
16462;SDS011;8342;42.736;23.292;2022-07-29T00:27:34;15.83;;;12.47;;
16462;SDS011;8342;42.736;23.292;2022-07-29T00:30:01;15.60;;;12.90;;
16462;SDS011;8342;42.736;23.292;2022-07-29T00:32:29;13.77;;;11.93;;
16462;SDS011;8342;42.736;23.292;2022-07-29T00:34:56;14.13;;;12.63;;
16462;SDS011;8342;42.736;23.292;2022-07-29T00:37:40;14.93;;;12.97;;
16462;SDS011;8342;42.736;23.292;2022-07-29T00:40:07;14.53;;;12.97;;
16462;SDS011;8342;42.736;23.292;2022-07-29T00:42:41;14.70;;;12.70;;
16462;SDS011;8342;42.736;23.292;2022-07-29T00:45:08;15.97;;;12.87;;
16462;SDS011;8342;42.736;23.292;2022-07-29T00:47:37;13.23;;;11.83;;
16462;SDS011;8342;42.736;23.292;2022-07-29T00:50:04;13.37;;;11.97;;
16462;SDS011;8342;42.736;23.292;2022-07-29T00:52:32;13.60;;;12.17;;
16462;SDS011;8342;42.736;23.292;2022-07-29T00:54:59;13.90;;;12.40;;
16462;SDS011;8342;42.736;23.292;2022-07-29T00:57:26;14.17;;;12.27;;
16462;SDS011;8342;42.736;23.292;2022-07-29T00:59:53;15.00;;;12.00;;
16462;SDS011;8342;42.736;23.292;2022-07-29T01:02:19;14.77;;;13.27;;
16462;SDS011;8342;42.736;23.292;2022-07-29T01:04:48;13.20;;;11.80;;
16462;SDS011;8342;42.736;23.292;2022-07-29T01:07:15;14.27;;;12.77;;
16462;SDS011;8342;42.736;23.292;2022-07-29T01:09:42;13.90;;;12.37;;
16462;SDS011;8342;42.736;23.292;2022-07-29T01:12:09;14.43;;;12.37;;
16462;SDS011;8342;42.736;23.292;2022-07-29T01:14:38;14.67;;;12.97;;
16462;SDS011;8342;42.736;23.292;2022-07-29T01:17:06;13.77;;;12.20;;
16462;SDS011;8342;42.736;23.292;2022-07-29T01:19:43;15.40;;;12.50;;
16462;SDS011;8342;42.736;23.292;2022-07-29T01:22:22;15.83;;;13.63;;
16462;SDS011;8342;42.736;23.292;2022-07-29T01:25:03;16.23;;;12.90;;
16462;SDS011;8342;42.736;23.292;2022-07-29T01:27:43;15.43;;;12.80;;
16462;SDS011;8342;42.736;23.292;2022-07-29T01:30:15;18.97;;;12.83;;
16462;SDS011;8342;42.736;23.292;2022-07-29T01:32:43;15.30;;;12.93;;
16462;SDS011;8342;42.736;23.292;2022-07-29T01:35:14;14.00;;;11.87;;
16462;SDS011;8342;42.736;23.292;2022-07-29T01:37:44;15.03;;;12.60;;
16462;SDS011;8342;42.736;23.292;2022-07-29T01:40:20;16.77;;;13.13;;
16462;SDS011;8342;42.736;23.292;2022-07-29T01:42:51;16.03;;;12.83;;
16462;SDS011;8342;42.736;23.292;2022-07-29T01:45:21;14.80;;;12.00;;
16462;SDS011;8342;42.736;23.292;2022-07-29T01:47:52;17.47;;;14.10;;
16462;SDS011;8342;42.736;23.292;2022-07-29T01:50:23;16.17;;;13.30;;
16462;SDS011;8342;42.736;23.292;2022-07-29T01:52:56;16.37;;;13.90;;
16462;SDS011;8342;42.736;23.292;2022-07-29T01:55:24;15.90;;;13.57;;
16462;SDS011;8342;42.736;23.292;2022-07-29T01:57:53;15.77;;;14.17;;
16462;SDS011;8342;42.736;23.292;2022-07-29T02:00:21;16.77;;;14.00;;
16462;SDS011;8342;42.736;23.292;2022-07-29T02:02:49;25.43;;;14.27;;
16462;SDS011;8342;42.736;23.292;2022-07-29T02:05:17;17.73;;;14.60;;
16462;SDS011;8342;42.736;23.292;2022-07-29T02:07:46;16.73;;;14.27;;
16462;SDS011;8342;42.736;23.292;2022-07-29T02:10:13;17.37;;;15.00;;
16462;SDS011;8342;42.736;23.292;2022-07-29T02:12:40;17.97;;;14.27;;
16462;SDS011;8342;42.736;23.292;2022-07-29T02:15:09;17.97;;;13.77;;
16462;SDS011;8342;42.736;23.292;2022-07-29T02:17:39;18.90;;;14.00;;
16462;SDS011;8342;42.736;23.292;2022-07-29T02:20:08;16.33;;;13.90;;
16462;SDS011;8342;42.736;23.292;2022-07-29T02:22:37;19.73;;;14.40;;
16462;SDS011;8342;42.736;23.292;2022-07-29T02:25:05;18.30;;;12.77;;
16462;SDS011;8342;42.736;23.292;2022-07-29T02:27:33;15.07;;;13.47;;
16462;SDS011;8342;42.736;23.292;2022-07-29T02:30:01;16.30;;;13.27;;
16462;SDS011;8342;42.736;23.292;2022-07-29T02:32:29;17.37;;;13.70;;
16462;SDS011;8342;42.736;23.292;2022-07-29T02:34:59;18.37;;;14.57;;
16462;SDS011;8342;42.736;23.292;2022-07-29T02:37:26;18.10;;;15.07;;
16462;SDS011;8342;42.736;23.292;2022-07-29T02:39:54;18.57;;;14.50;;
16462;SDS011;8342;42.736;23.292;2022-07-29T02:42:22;19.90;;;15.40;;
16462;SDS011;8342;42.736;23.292;2022-07-29T02:44:49;16.90;;;13.37;;
16462;SDS011;8342;42.736;23.292;2022-07-29T02:47:18;18.27;;;14.40;;
16462;SDS011;8342;42.736;23.292;2022-07-29T02:49:48;16.30;;;14.30;;
16462;SDS011;8342;42.736;23.292;2022-07-29T02:52:23;19.57;;;14.97;;
16462;SDS011;8342;42.736;23.292;2022-07-29T02:54:53;19.40;;;15.80;;
16462;SDS011;8342;42.736;23.292;2022-07-29T02:57:25;20.43;;;16.33;;
16462;SDS011;8342;42.736;23.292;2022-07-29T02:59:57;18.63;;;15.87;;
16462;SDS011;8342;42.736;23.292;2022-07-29T03:02:25;18.57;;;16.13;;
16462;SDS011;8342;42.736;23.292;2022-07-29T03:04:53;19.57;;;15.70;;
16462;SDS011;8342;42.736;23.292;2022-07-29T03:07:23;24.47;;;15.97;;
16462;SDS011;8342;42.736;23.292;2022-07-29T03:09:50;18.43;;;15.77;;
16462;SDS011;8342;42.736;23.292;2022-07-29T03:12:17;17.40;;;15.57;;
16462;SDS011;8342;42.736;23.292;2022-07-29T03:14:44;22.40;;;16.67;;
16462;SDS011;8342;42.736;23.292;2022-07-29T03:17:11;20.23;;;16.97;;
16462;SDS011;8342;42.736;23.292;2022-07-29T03:19:38;20.57;;;15.63;;
16462;SDS011;8342;42.736;23.292;2022-07-29T03:22:06;18.93;;;16.03;;
16462;SDS011;8342;42.736;23.292;2022-07-29T03:24:34;19.40;;;16.67;;
16462;SDS011;8342;42.736;23.292;2022-07-29T03:27:02;20.73;;;15.63;;
16462;SDS011;8342;42.736;23.292;2022-07-29T03:29:30;19.70;;;15.37;;
16462;SDS011;8342;42.736;23.292;2022-07-29T03:31:58;18.80;;;15.93;;
16462;SDS011;8342;42.736;23.292;2022-07-29T03:34:25;17.80;;;15.00;;
16462;SDS011;8342;42.736;23.292;2022-07-29T03:36:52;18.47;;;16.17;;
16462;SDS011;8342;42.736;23.292;2022-07-29T03:39:21;19.40;;;17.13;;
16462;SDS011;8342;42.736;23.292;2022-07-29T03:41:51;20.80;;;16.67;;
16462;SDS011;8342;42.736;23.292;2022-07-29T03:44:19;20.63;;;16.57;;
16462;SDS011;8342;42.736;23.292;2022-07-29T03:46:47;17.77;;;15.77;;
16462;SDS011;8342;42.736;23.292;2022-07-29T03:49:16;21.57;;;16.70;;
16462;SDS011;8342;42.736;23.292;2022-07-29T03:51:43;18.77;;;16.77;;
16462;SDS011;8342;42.736;23.292;2022-07-29T03:54:10;21.53;;;17.47;;
16462;SDS011;8342;42.736;23.292;2022-07-29T03:56:41;18.90;;;16.73;;
16462;SDS011;8342;42.736;23.292;2022-07-29T03:59:12;17.73;;;15.63;;
16462;SDS011;8342;42.736;23.292;2022-07-29T04:01:40;20.17;;;16.00;;
16462;SDS011;8342;42.736;23.292;2022-07-29T04:04:07;18.57;;;15.63;;
16462;SDS011;8342;42.736;23.292;2022-07-29T04:06:38;20.43;;;16.37;;
16462;SDS011;8342;42.736;23.292;2022-07-29T04:09:05;17.83;;;15.93;;
16462;SDS011;8342;42.736;23.292;2022-07-29T04:11:32;18.30;;;15.00;;
16462;SDS011;8342;42.736;23.292;2022-07-29T04:13:59;21.33;;;15.43;;
16462;SDS011;8342;42.736;23.292;2022-07-29T04:16:27;19.43;;;15.90;;
16462;SDS011;8342;42.736;23.292;2022-07-29T04:18:54;22.13;;;14.93;;
16462;SDS011;8342;42.736;23.292;2022-07-29T04:21:21;18.37;;;14.80;;
16462;SDS011;8342;42.736;23.292;2022-07-29T04:23:49;18.50;;;14.10;;
16462;SDS011;8342;42.736;23.292;2022-07-29T04:26:16;18.57;;;14.23;;
16462;SDS011;8342;42.736;23.292;2022-07-29T04:28:43;18.90;;;14.70;;
16462;SDS011;8342;42.736;23.292;2022-07-29T04:31:10;20.17;;;14.80;;
16462;SDS011;8342;42.736;23.292;2022-07-29T04:33:39;16.63;;;13.97;;
16462;SDS011;8342;42.736;23.292;2022-07-29T04:36:06;16.80;;;14.43;;
16462;SDS011;8342;42.736;23.292;2022-07-29T04:38:32;17.60;;;14.30;;
16462;SDS011;8342;42.736;23.292;2022-07-29T04:40:59;16.40;;;13.53;;
16462;SDS011;8342;42.736;23.292;2022-07-29T04:43:26;26.23;;;14.17;;
16462;SDS011;8342;42.736;23.292;2022-07-29T04:45:53;19.90;;;13.97;;
16462;SDS011;8342;42.736;23.292;2022-07-29T04:48:20;16.87;;;14.63;;
16462;SDS011;8342;42.736;23.292;2022-07-29T04:50:48;20.60;;;14.10;;
16462;SDS011;8342;42.736;23.292;2022-07-29T04:53:15;17.93;;;13.07;;
16462;SDS011;8342;42.736;23.292;2022-07-29T04:55:42;16.40;;;13.50;;
16462;SDS011;8342;42.736;23.292;2022-07-29T04:58:09;16.70;;;13.47;;
16462;SDS011;8342;42.736;23.292;2022-07-29T05:00:36;17.17;;;14.27;;
16462;SDS011;8342;42.736;23.292;2022-07-29T05:03:03;19.47;;;15.00;;
16462;SDS011;8342;42.736;23.292;2022-07-29T05:05:30;18.93;;;15.10;;
16462;SDS011;8342;42.736;23.292;2022-07-29T05:07:58;19.33;;;14.93;;
16462;SDS011;8342;42.736;23.292;2022-07-29T05:10:25;14.80;;;13.20;;
16462;SDS011;8342;42.736;23.292;2022-07-29T05:12:52;17.00;;;14.80;;
16462;SDS011;8342;42.736;23.292;2022-07-29T05:15:19;17.37;;;15.40;;
16462;SDS011;8342;42.736;23.292;2022-07-29T05:17:46;20.70;;;14.47;;
16462;SDS011;8342;42.736;23.292;2022-07-29T05:20:13;20.43;;;14.73;;
16462;SDS011;8342;42.736;23.292;2022-07-29T05:22:39;18.93;;;15.87;;
16462;SDS011;8342;42.736;23.292;2022-07-29T05:25:08;20.43;;;16.33;;
16462;SDS011;8342;42.736;23.292;2022-07-29T05:27:35;19.77;;;16.97;;
16462;SDS011;8342;42.736;23.292;2022-07-29T05:30:02;23.30;;;15.90;;
16462;SDS011;8342;42.736;23.292;2022-07-29T05:32:30;20.07;;;16.10;;
16462;SDS011;8342;42.736;23.292;2022-07-29T05:34:56;19.03;;;15.40;;
16462;SDS011;8342;42.736;23.292;2022-07-29T05:37:23;23.60;;;15.97;;
16462;SDS011;8342;42.736;23.292;2022-07-29T05:42:45;21.00;;;16.23;;
16462;SDS011;8342;42.736;23.292;2022-07-29T05:45:12;28.43;;;17.00;;
16462;SDS011;8342;42.736;23.292;2022-07-29T05:47:39;25.33;;;16.80;;
16462;SDS011;8342;42.736;23.292;2022-07-29T05:50:06;23.93;;;15.57;;
16462;SDS011;8342;42.736;23.292;2022-07-29T05:52:34;21.03;;;15.80;;
16462;SDS011;8342;42.736;23.292;2022-07-29T05:55:00;26.60;;;17.03;;
16462;SDS011;8342;42.736;23.292;2022-07-29T05:57:31;25.77;;;16.87;;
16462;SDS011;8342;42.736;23.292;2022-07-29T05:59:58;30.10;;;17.03;;
16462;SDS011;8342;42.736;23.292;2022-07-29T06:02:25;27.57;;;14.47;;
16462;SDS011;8342;42.736;23.292;2022-07-29T06:04:52;24.23;;;15.03;;
16462;SDS011;8342;42.736;23.292;2022-07-29T06:07:19;17.00;;;13.63;;
16462;SDS011;8342;42.736;23.292;2022-07-29T06:09:46;16.17;;;11.80;;
16462;SDS011;8342;42.736;23.292;2022-07-29T06:12:12;13.43;;;9.43;;
16462;SDS011;8342;42.736;23.292;2022-07-29T06:14:41;10.80;;;9.77;;
16462;SDS011;8342;42.736;23.292;2022-07-29T06:17:07;20.03;;;15.37;;
16462;SDS011;8342;42.736;23.292;2022-07-29T06:19:36;16.73;;;14.83;;
16462;SDS011;8342;42.736;23.292;2022-07-29T06:22:03;21.53;;;16.43;;
16462;SDS011;8342;42.736;23.292;2022-07-29T06:24:30;17.47;;;14.97;;
16462;SDS011;8342;42.736;23.292;2022-07-29T06:26:57;18.03;;;16.03;;
16462;SDS011;8342;42.736;23.292;2022-07-29T06:29:24;19.70;;;14.90;;
16462;SDS011;8342;42.736;23.292;2022-07-29T06:31:52;16.80;;;15.00;;
16462;SDS011;8342;42.736;23.292;2022-07-29T06:34:19;22.00;;;15.17;;
16462;SDS011;8342;42.736;23.292;2022-07-29T06:36:46;12.10;;;10.90;;
16462;SDS011;8342;42.736;23.292;2022-07-29T06:39:14;16.23;;;11.57;;
16462;SDS011;8342;42.736;23.292;2022-07-29T06:41:41;12.03;;;7.63;;
16462;SDS011;8342;42.736;23.292;2022-07-29T06:44:09;8.20;;;6.17;;
16462;SDS011;8342;42.736;23.292;2022-07-29T06:46:35;6.63;;;5.87;;
16462;SDS011;8342;42.736;23.292;2022-07-29T06:49:04;5.97;;;5.37;;
16462;SDS011;8342;42.736;23.292;2022-07-29T06:51:31;11.90;;;5.10;;
16462;SDS011;8342;42.736;23.292;2022-07-29T06:53:57;5.67;;;5.17;;
16462;SDS011;8342;42.736;23.292;2022-07-29T06:56:25;5.97;;;5.47;;
16462;SDS011;8342;42.736;23.292;2022-07-29T06:58:52;6.07;;;4.87;;
16462;SDS011;8342;42.736;23.292;2022-07-29T07:01:19;6.23;;;5.07;;
16462;SDS011;8342;42.736;23.292;2022-07-29T07:03:46;5.57;;;5.07;;
16462;SDS011;8342;42.736;23.292;2022-07-29T07:06:14;5.00;;;4.33;;
16462;SDS011;8342;42.736;23.292;2022-07-29T07:08:41;5.83;;;4.50;;
16462;SDS011;8342;42.736;23.292;2022-07-29T07:11:08;6.40;;;4.30;;
16462;SDS011;8342;42.736;23.292;2022-07-29T07:13:35;5.27;;;4.87;;
16462;SDS011;8342;42.736;23.292;2022-07-29T07:16:04;6.57;;;4.97;;
16462;SDS011;8342;42.736;23.292;2022-07-29T07:18:30;5.43;;;4.80;;
16462;SDS011;8342;42.736;23.292;2022-07-29T07:20:58;5.57;;;4.80;;
16462;SDS011;8342;42.736;23.292;2022-07-29T07:23:26;5.03;;;3.80;;
16462;SDS011;8342;42.736;23.292;2022-07-29T07:25:53;5.30;;;4.23;;
16462;SDS011;8342;42.736;23.292;2022-07-29T07:28:20;5.23;;;4.60;;
16462;SDS011;8342;42.736;23.292;2022-07-29T07:30:47;6.83;;;4.60;;
16462;SDS011;8342;42.736;23.292;2022-07-29T07:33:14;6.63;;;4.20;;
16462;SDS011;8342;42.736;23.292;2022-07-29T07:35:41;6.17;;;4.27;;
16462;SDS011;8342;42.736;23.292;2022-07-29T07:38:08;7.67;;;4.53;;
16462;SDS011;8342;42.736;23.292;2022-07-29T07:40:36;6.13;;;4.33;;
16462;SDS011;8342;42.736;23.292;2022-07-29T07:43:03;11.00;;;7.63;;
16462;SDS011;8342;42.736;23.292;2022-07-29T07:45:30;7.90;;;5.03;;
16462;SDS011;8342;42.736;23.292;2022-07-29T07:47:58;5.43;;;4.93;;
16462;SDS011;8342;42.736;23.292;2022-07-29T07:50:25;5.50;;;4.37;;
16462;SDS011;8342;42.736;23.292;2022-07-29T07:52:53;6.73;;;4.80;;
16462;SDS011;8342;42.736;23.292;2022-07-29T07:55:23;8.90;;;4.87;;
16462;SDS011;8342;42.736;23.292;2022-07-29T07:57:51;5.50;;;4.90;;
16462;SDS011;8342;42.736;23.292;2022-07-29T08:00:18;16.60;;;13.73;;
16462;SDS011;8342;42.736;23.292;2022-07-29T08:02:45;5.00;;;4.57;;
16462;SDS011;8342;42.736;23.292;2022-07-29T08:05:12;6.37;;;5.07;;
16462;SDS011;8342;42.736;23.292;2022-07-29T08:07:42;4.60;;;4.20;;
16462;SDS011;8342;42.736;23.292;2022-07-29T08:10:09;5.20;;;4.70;;
16462;SDS011;8342;42.736;23.292;2022-07-29T08:12:36;5.63;;;4.60;;
16462;SDS011;8342;42.736;23.292;2022-07-29T08:15:05;6.80;;;4.60;;
16462;SDS011;8342;42.736;23.292;2022-07-29T08:17:33;5.73;;;5.13;;
16462;SDS011;8342;42.736;23.292;2022-07-29T08:20:00;5.23;;;4.70;;
16462;SDS011;8342;42.736;23.292;2022-07-29T08:22:27;8.23;;;4.27;;
16462;SDS011;8342;42.736;23.292;2022-07-29T08:24:54;5.97;;;4.37;;
16462;SDS011;8342;42.736;23.292;2022-07-29T08:27:21;5.13;;;4.40;;
16462;SDS011;8342;42.736;23.292;2022-07-29T08:29:48;6.27;;;4.30;;
16462;SDS011;8342;42.736;23.292;2022-07-29T08:32:17;4.77;;;4.37;;
16462;SDS011;8342;42.736;23.292;2022-07-29T08:34:43;5.53;;;4.67;;
16462;SDS011;8342;42.736;23.292;2022-07-29T08:37:11;5.10;;;4.30;;
16462;SDS011;8342;42.736;23.292;2022-07-29T08:39:38;7.13;;;4.80;;
16462;SDS011;8342;42.736;23.292;2022-07-29T08:42:06;6.70;;;4.97;;
16462;SDS011;8342;42.736;23.292;2022-07-29T08:44:33;5.67;;;5.17;;
16462;SDS011;8342;42.736;23.292;2022-07-29T08:47:00;5.67;;;4.40;;
16462;SDS011;8342;42.736;23.292;2022-07-29T08:49:29;3.93;;;3.63;;
16462;SDS011;8342;42.736;23.292;2022-07-29T08:51:55;5.83;;;4.40;;
16462;SDS011;8342;42.736;23.292;2022-07-29T08:54:23;8.83;;;4.67;;
16462;SDS011;8342;42.736;23.292;2022-07-29T08:56:50;4.63;;;4.10;;
16462;SDS011;8342;42.736;23.292;2022-07-29T08:59:19;6.63;;;4.80;;
16462;SDS011;8342;42.736;23.292;2022-07-29T09:01:46;11.80;;;4.90;;
16462;SDS011;8342;42.736;23.292;2022-07-29T09:04:14;6.77;;;4.37;;
16462;SDS011;8342;42.736;23.292;2022-07-29T09:06:44;4.20;;;3.90;;
16462;SDS011;8342;42.736;23.292;2022-07-29T09:09:11;5.23;;;4.73;;
16462;SDS011;8342;42.736;23.292;2022-07-29T09:11:39;4.97;;;4.47;;
16462;SDS011;8342;42.736;23.292;2022-07-29T09:14:06;5.27;;;4.77;;
16462;SDS011;8342;42.736;23.292;2022-07-29T09:16:46;4.20;;;3.90;;
16462;SDS011;8342;42.736;23.292;2022-07-29T09:19:21;4.17;;;3.80;;
16462;SDS011;8342;42.736;23.292;2022-07-29T09:21:50;5.00;;;4.30;;
16462;SDS011;8342;42.736;23.292;2022-07-29T09:24:39;6.07;;;4.30;;
16462;SDS011;8342;42.736;23.292;2022-07-29T09:27:08;6.90;;;4.17;;
16462;SDS011;8342;42.736;23.292;2022-07-29T09:29:36;4.73;;;4.33;;
16462;SDS011;8342;42.736;23.292;2022-07-29T09:32:05;5.00;;;4.50;;
16462;SDS011;8342;42.736;23.292;2022-07-29T09:34:33;4.50;;;4.10;;
16462;SDS011;8342;42.736;23.292;2022-07-29T09:37:01;4.37;;;3.87;;
16462;SDS011;8342;42.736;23.292;2022-07-29T09:39:30;4.73;;;4.23;;
16462;SDS011;8342;42.736;23.292;2022-07-29T09:45:26;4.80;;;4.20;;
16462;SDS011;8342;42.736;23.292;2022-07-29T09:47:54;5.53;;;5.03;;
16462;SDS011;8342;42.736;23.292;2022-07-29T09:50:35;4.93;;;4.40;;
16462;SDS011;8342;42.736;23.292;2022-07-29T09:53:04;6.40;;;4.20;;
16462;SDS011;8342;42.736;23.292;2022-07-29T09:55:31;4.83;;;3.87;;
16462;SDS011;8342;42.736;23.292;2022-07-29T10:00:42;7.03;;;4.03;;
16462;SDS011;8342;42.736;23.292;2022-07-29T10:03:10;4.30;;;3.90;;
16462;SDS011;8342;42.736;23.292;2022-07-29T10:05:37;5.00;;;4.50;;
16462;SDS011;8342;42.736;23.292;2022-07-29T10:08:06;5.40;;;4.90;;
16462;SDS011;8342;42.736;23.292;2022-07-29T10:10:34;10.67;;;4.73;;
16462;SDS011;8342;42.736;23.292;2022-07-29T10:13:02;5.10;;;4.70;;
16462;SDS011;8342;42.736;23.292;2022-07-29T10:15:31;4.93;;;4.40;;
16462;SDS011;8342;42.736;23.292;2022-07-29T10:18:02;6.17;;;4.70;;
16462;SDS011;8342;42.736;23.292;2022-07-29T10:20:29;4.67;;;4.27;;
16462;SDS011;8342;42.736;23.292;2022-07-29T10:22:56;6.30;;;4.10;;
16462;SDS011;8342;42.736;23.292;2022-07-29T10:25:25;8.50;;;4.33;;
16462;SDS011;8342;42.736;23.292;2022-07-29T10:27:53;6.53;;;4.80;;
16462;SDS011;8342;42.736;23.292;2022-07-29T10:30:20;4.73;;;4.23;;
16462;SDS011;8342;42.736;23.292;2022-07-29T10:32:56;6.43;;;4.30;;
16462;SDS011;8342;42.736;23.292;2022-07-29T10:35:40;4.90;;;4.50;;
16462;SDS011;8342;42.736;23.292;2022-07-29T10:41:05;5.33;;;3.90;;
16462;SDS011;8342;42.736;23.292;2022-07-29T10:43:53;4.53;;;4.00;;
16462;SDS011;8342;42.736;23.292;2022-07-29T10:46:34;4.70;;;4.30;;
16462;SDS011;8342;42.736;23.292;2022-07-29T10:49:08;6.83;;;4.00;;
16462;SDS011;8342;42.736;23.292;2022-07-29T10:54:38;5.67;;;4.20;;
16462;SDS011;8342;42.736;23.292;2022-07-29T10:57:13;4.27;;;3.97;;
16462;SDS011;8342;42.736;23.292;2022-07-29T10:59:44;4.40;;;4.00;;
16462;SDS011;8342;42.736;23.292;2022-07-29T11:05:07;4.40;;;4.00;;
16462;SDS011;8342;42.736;23.292;2022-07-29T11:07:36;4.50;;;4.10;;
16462;SDS011;8342;42.736;23.292;2022-07-29T11:10:22;4.30;;;3.93;;
16462;SDS011;8342;42.736;23.292;2022-07-29T11:12:50;5.23;;;4.73;;
16462;SDS011;8342;42.736;23.292;2022-07-29T11:15:18;4.80;;;4.40;;
16462;SDS011;8342;42.736;23.292;2022-07-29T11:18:02;5.37;;;4.87;;
16462;SDS011;8342;42.736;23.292;2022-07-29T11:20:31;4.47;;;4.07;;
16462;SDS011;8342;42.736;23.292;2022-07-29T11:22:58;4.67;;;4.07;;
16462;SDS011;8342;42.736;23.292;2022-07-29T11:25:25;5.33;;;4.40;;
16462;SDS011;8342;42.736;23.292;2022-07-29T11:27:54;5.63;;;4.70;;
16462;SDS011;8342;42.736;23.292;2022-07-29T11:30:48;5.50;;;5.00;;
16462;SDS011;8342;42.736;23.292;2022-07-29T11:33:28;5.17;;;4.70;;
16462;SDS011;8342;42.736;23.292;2022-07-29T11:38:41;6.13;;;4.47;;
16462;SDS011;8342;42.736;23.292;2022-07-29T11:41:20;5.40;;;4.90;;
16462;SDS011;8342;42.736;23.292;2022-07-29T11:43:51;6.00;;;5.40;;
16462;SDS011;8342;42.736;23.292;2022-07-29T11:49:10;5.47;;;4.97;;
16462;SDS011;8342;42.736;23.292;2022-07-29T11:51:37;6.20;;;4.70;;
16462;SDS011;8342;42.736;23.292;2022-07-29T11:54:05;6.03;;;5.27;;
16462;SDS011;8342;42.736;23.292;2022-07-29T11:56:34;9.97;;;5.70;;
16462;SDS011;8342;42.736;23.292;2022-07-29T11:59:07;11.77;;;5.27;;
16462;SDS011;8342;42.736;23.292;2022-07-29T12:01:35;5.67;;;5.17;;
16462;SDS011;8342;42.736;23.292;2022-07-29T12:04:02;5.50;;;5.00;;
16462;SDS011;8342;42.736;23.292;2022-07-29T12:06:30;7.10;;;5.00;;
16462;SDS011;8342;42.736;23.292;2022-07-29T12:08:57;4.87;;;4.47;;
16462;SDS011;8342;42.736;23.292;2022-07-29T12:11:23;5.63;;;5.00;;
16462;SDS011;8342;42.736;23.292;2022-07-29T12:13:51;5.20;;;4.70;;
16462;SDS011;8342;42.736;23.292;2022-07-29T12:16:19;5.63;;;5.03;;
16462;SDS011;8342;42.736;23.292;2022-07-29T12:18:54;6.33;;;5.73;;
16462;SDS011;8342;42.736;23.292;2022-07-29T12:21:21;6.30;;;5.40;;
16462;SDS011;8342;42.736;23.292;2022-07-29T12:23:52;5.53;;;5.03;;
16462;SDS011;8342;42.736;23.292;2022-07-29T12:26:19;5.90;;;5.30;;
16462;SDS011;8342;42.736;23.292;2022-07-29T12:28:46;6.87;;;5.23;;
16462;SDS011;8342;42.736;23.292;2022-07-29T12:31:12;10.90;;;5.53;;
16462;SDS011;8342;42.736;23.292;2022-07-29T12:33:41;6.47;;;5.60;;
16462;SDS011;8342;42.736;23.292;2022-07-29T12:36:08;6.07;;;5.57;;
16462;SDS011;8342;42.736;23.292;2022-07-29T12:38:36;5.47;;;4.83;;
16462;SDS011;8342;42.736;23.292;2022-07-29T12:41:03;6.27;;;5.67;;
16462;SDS011;8342;42.736;23.292;2022-07-29T12:43:30;6.00;;;5.27;;
16462;SDS011;8342;42.736;23.292;2022-07-29T12:45:57;6.77;;;6.00;;
16462;SDS011;8342;42.736;23.292;2022-07-29T12:48:38;5.73;;;5.33;;
16462;SDS011;8342;42.736;23.292;2022-07-29T12:51:08;6.67;;;5.87;;
16462;SDS011;8342;42.736;23.292;2022-07-29T12:53:36;7.10;;;5.70;;
16462;SDS011;8342;42.736;23.292;2022-07-29T12:56:04;6.37;;;5.77;;
16462;SDS011;8342;42.736;23.292;2022-07-29T12:58:32;5.73;;;5.23;;
16462;SDS011;8342;42.736;23.292;2022-07-29T13:01:05;6.80;;;6.13;;
16462;SDS011;8342;42.736;23.292;2022-07-29T13:03:47;6.57;;;5.97;;
16462;SDS011;8342;42.736;23.292;2022-07-29T13:09:11;6.83;;;5.87;;
16462;SDS011;8342;42.736;23.292;2022-07-29T13:11:40;6.77;;;6.17;;
16462;SDS011;8342;42.736;23.292;2022-07-29T13:14:08;8.50;;;6.20;;
16462;SDS011;8342;42.736;23.292;2022-07-29T13:16:35;6.70;;;5.80;;
16462;SDS011;8342;42.736;23.292;2022-07-29T13:19:03;8.70;;;6.20;;
16462;SDS011;8342;42.736;23.292;2022-07-29T13:21:33;7.77;;;6.47;;
16462;SDS011;8342;42.736;23.292;2022-07-29T13:24:02;6.77;;;5.93;;
16462;SDS011;8342;42.736;23.292;2022-07-29T13:26:31;6.57;;;5.97;;
16462;SDS011;8342;42.736;23.292;2022-07-29T13:28:58;7.27;;;6.43;;
16462;SDS011;8342;42.736;23.292;2022-07-29T13:31:25;7.77;;;5.80;;
16462;SDS011;8342;42.736;23.292;2022-07-29T13:33:51;6.77;;;5.43;;
16462;SDS011;8342;42.736;23.292;2022-07-29T13:36:18;10.53;;;5.80;;
16462;SDS011;8342;42.736;23.292;2022-07-29T13:38:45;9.20;;;5.97;;
16462;SDS011;8342;42.736;23.292;2022-07-29T13:41:13;9.00;;;6.47;;
16462;SDS011;8342;42.736;23.292;2022-07-29T13:43:40;6.50;;;6.00;;
16462;SDS011;8342;42.736;23.292;2022-07-29T13:46:07;10.30;;;5.50;;
16462;SDS011;8342;42.736;23.292;2022-07-29T13:48:34;6.10;;;5.53;;
16462;SDS011;8342;42.736;23.292;2022-07-29T13:51:00;6.20;;;5.60;;
16462;SDS011;8342;42.736;23.292;2022-07-29T13:53:27;6.47;;;5.87;;
16462;SDS011;8342;42.736;23.292;2022-07-29T13:55:54;6.40;;;5.90;;
16462;SDS011;8342;42.736;23.292;2022-07-29T13:58:22;6.37;;;5.77;;
16462;SDS011;8342;42.736;23.292;2022-07-29T14:00:49;6.00;;;5.50;;
16462;SDS011;8342;42.736;23.292;2022-07-29T14:03:16;6.43;;;5.40;;
16462;SDS011;8342;42.736;23.292;2022-07-29T14:05:43;7.43;;;6.73;;
16462;SDS011;8342;42.736;23.292;2022-07-29T14:08:10;6.97;;;6.27;;
16462;SDS011;8342;42.736;23.292;2022-07-29T14:10:37;7.20;;;6.50;;
16462;SDS011;8342;42.736;23.292;2022-07-29T14:13:03;8.50;;;5.93;;
16462;SDS011;8342;42.736;23.292;2022-07-29T14:15:32;6.83;;;6.23;;
16462;SDS011;8342;42.736;23.292;2022-07-29T14:17:58;6.67;;;6.07;;
16462;SDS011;8342;42.736;23.292;2022-07-29T14:20:25;6.43;;;5.83;;
16462;SDS011;8342;42.736;23.292;2022-07-29T14:22:53;6.63;;;5.97;;
16462;SDS011;8342;42.736;23.292;2022-07-29T14:25:20;6.83;;;6.33;;
16462;SDS011;8342;42.736;23.292;2022-07-29T14:27:47;7.63;;;6.33;;
16462;SDS011;8342;42.736;23.292;2022-07-29T14:30:13;7.40;;;5.67;;
16462;SDS011;8342;42.736;23.292;2022-07-29T14:32:42;6.67;;;6.07;;
16462;SDS011;8342;42.736;23.292;2022-07-29T14:35:08;6.87;;;5.93;;
16462;SDS011;8342;42.736;23.292;2022-07-29T14:37:35;8.03;;;5.80;;
16462;SDS011;8342;42.736;23.292;2022-07-29T14:40:02;6.70;;;6.07;;
16462;SDS011;8342;42.736;23.292;2022-07-29T14:42:30;6.30;;;5.70;;
16462;SDS011;8342;42.736;23.292;2022-07-29T14:44:57;6.27;;;5.77;;
16462;SDS011;8342;42.736;23.292;2022-07-29T14:47:24;6.97;;;6.37;;
16462;SDS011;8342;42.736;23.292;2022-07-29T14:49:52;7.00;;;5.37;;
16462;SDS011;8342;42.736;23.292;2022-07-29T14:52:19;6.33;;;5.83;;
16462;SDS011;8342;42.736;23.292;2022-07-29T14:54:46;6.27;;;5.77;;
16462;SDS011;8342;42.736;23.292;2022-07-29T14:57:13;5.90;;;5.37;;
16462;SDS011;8342;42.736;23.292;2022-07-29T14:59:40;7.17;;;6.00;;
16462;SDS011;8342;42.736;23.292;2022-07-29T15:02:06;6.70;;;6.07;;
16462;SDS011;8342;42.736;23.292;2022-07-29T15:04:33;7.33;;;5.80;;
16462;SDS011;8342;42.736;23.292;2022-07-29T15:07:02;8.50;;;5.33;;
16462;SDS011;8342;42.736;23.292;2022-07-29T15:09:29;6.80;;;6.20;;